createdAt,value
2019-03-18T00:00:25.059Z,3.30
2019-03-18T00:02:53.918Z,3.40
2019-03-18T00:05:25.384Z,3.50
2019-03-18T00:07:54.408Z,3.50
2019-03-18T00:10:24.093Z,3.50
2019-03-18T00:12:54.417Z,3.50
2019-03-18T00:15:24.982Z,3.50
2019-03-18T00:17:55.871Z,3.50
2019-03-18T00:20:27.150Z,3.50
2019-03-18T00:22:57.356Z,3.50
2019-03-18T00:25:27.892Z,3.50
2019-03-18T00:27:58.519Z,3.50
2019-03-18T00:30:29.324Z,3.60
2019-03-18T00:32:59.364Z,3.60
2019-03-18T00:35:30.272Z,3.60
2019-03-18T00:38:00.746Z,3.60
2019-03-18T00:40:30.944Z,3.60
2019-03-18T00:43:01.439Z,3.50
2019-03-18T00:45:32.034Z,3.40
2019-03-18T00:48:01.998Z,3.20
2019-03-18T00:50:32.283Z,3.10
2019-03-18T00:53:02.718Z,3.00
2019-03-18T00:55:33.137Z,3.10
2019-03-18T00:58:02.974Z,3.00
2019-03-18T01:00:33.280Z,2.90
2019-03-18T01:03:03.848Z,3.00
2019-03-18T01:05:33.930Z,3.10
2019-03-18T01:08:07.851Z,3.20
2019-03-18T01:10:38.185Z,3.20
2019-03-18T01:13:09.167Z,3.20
2019-03-18T01:15:38.232Z,3.20
2019-03-18T01:18:08.177Z,3.10
2019-03-18T01:20:37.799Z,3.00
2019-03-18T01:23:06.945Z,2.80
2019-03-18T01:25:36.084Z,2.80
2019-03-18T01:28:04.885Z,2.70
2019-03-18T01:30:33.911Z,2.70
2019-03-18T01:33:07.274Z,2.60
2019-03-18T01:35:36.409Z,2.40
2019-03-18T01:38:05.320Z,2.20
2019-03-18T01:40:35.379Z,2.00
2019-03-18T01:43:06.984Z,1.90
2019-03-18T01:45:40.859Z,1.80
2019-03-18T01:48:07.453Z,1.90
2019-03-18T01:50:36.403Z,1.90
2019-03-18T01:53:06.894Z,1.90
2019-03-18T01:55:36.655Z,1.80
2019-03-18T01:58:06.476Z,1.70
2019-03-18T02:00:36.093Z,1.60
2019-03-18T02:03:06.335Z,1.50
2019-03-18T02:05:35.129Z,1.50
2019-03-18T02:08:08.153Z,1.40
2019-03-18T02:10:37.470Z,1.30
2019-03-18T02:13:07.209Z,1.30
2019-03-18T02:15:37.238Z,1.40
2019-03-18T02:18:05.527Z,1.40
2019-03-18T02:20:33.775Z,1.50
2019-03-18T02:23:02.328Z,1.60
2019-03-18T02:25:30.743Z,1.60
2019-03-18T02:27:59.305Z,1.60
2019-03-18T02:30:45.847Z,1.60
2019-03-18T02:33:14.957Z,1.60
2019-03-18T02:35:43.637Z,1.70
2019-03-18T02:38:11.725Z,1.80
2019-03-18T02:40:40.343Z,1.90
2019-03-18T02:43:08.596Z,1.80
2019-03-18T02:45:37.185Z,1.90
2019-03-18T02:48:05.233Z,1.80
2019-03-18T02:50:33.342Z,1.70
2019-03-18T02:53:01.699Z,1.60
2019-03-18T02:55:29.755Z,1.60
2019-03-18T02:57:58.206Z,1.70
2019-03-18T03:00:27.061Z,1.90
2019-03-18T03:02:55.222Z,2.00
2019-03-18T03:05:23.719Z,2.00
2019-03-18T03:07:53.723Z,1.90
2019-03-18T03:10:23.943Z,1.70
2019-03-18T03:12:57.309Z,1.80
2019-03-18T03:15:28.070Z,1.80
2019-03-18T03:17:56.189Z,1.70
2019-03-18T03:20:25.258Z,1.60
2019-03-18T03:22:53.163Z,1.50
2019-03-18T03:25:24.614Z,1.40
2019-03-18T03:27:52.374Z,1.50
2019-03-18T03:30:20.403Z,1.60
2019-03-18T03:32:48.972Z,1.70
2019-03-18T03:35:17.548Z,1.80
2019-03-18T03:37:46.141Z,1.90
2019-03-18T03:40:14.643Z,2.00
2019-03-18T03:42:42.651Z,2.10
2019-03-18T03:45:11.563Z,2.30
2019-03-18T03:47:40.146Z,2.40
2019-03-18T03:50:08.554Z,2.50
2019-03-18T03:52:37.209Z,2.60
2019-03-18T03:55:06.228Z,2.70
2019-03-18T03:57:34.261Z,2.70
2019-03-18T04:00:04.546Z,2.70
2019-03-18T04:02:32.775Z,2.80
2019-03-18T04:05:01.787Z,3.00
2019-03-18T04:07:29.963Z,3.10
2019-03-18T04:09:59.148Z,3.20
2019-03-18T04:12:27.220Z,3.20
2019-03-18T04:14:55.284Z,3.20
2019-03-18T04:17:25.795Z,3.20
2019-03-18T04:19:53.723Z,3.20
2019-03-18T04:22:21.898Z,3.20
2019-03-18T04:24:49.986Z,3.20
2019-03-18T04:27:19.201Z,3.20
2019-03-18T04:34:45.544Z,3.10
2019-03-18T04:37:13.973Z,3.10
2019-03-18T04:39:42.342Z,2.80
2019-03-18T04:42:10.909Z,2.50
2019-03-18T04:49:37.958Z,2.30
2019-03-18T04:52:06.514Z,2.30
2019-03-18T04:54:35.314Z,2.30
2019-03-18T04:57:03.735Z,2.40
2019-03-18T04:59:31.779Z,2.50
2019-03-18T05:02:00.191Z,2.50
2019-03-18T05:04:28.364Z,2.60
2019-03-18T05:06:58.756Z,2.60
2019-03-18T05:09:26.817Z,2.50
2019-03-18T05:11:55.718Z,2.50
2019-03-18T05:14:24.491Z,2.40
2019-03-18T05:16:53.176Z,2.30
2019-03-18T05:19:23.700Z,2.20
2019-03-18T05:21:51.642Z,2.20
2019-03-18T05:24:20.185Z,2.30
2019-03-18T05:26:48.418Z,2.40
2019-03-18T05:29:17.213Z,2.50
2019-03-18T05:31:45.926Z,2.60
2019-03-18T05:34:14.506Z,2.70
2019-03-18T05:36:42.628Z,2.80
2019-03-18T05:39:11.231Z,2.80
2019-03-18T05:41:39.439Z,2.70
2019-03-18T05:44:08.194Z,2.60
2019-03-18T05:46:36.459Z,2.40
2019-03-18T05:49:04.782Z,2.20
2019-03-18T05:51:33.336Z,2.00
2019-03-18T05:54:01.624Z,1.90
2019-03-18T05:56:31.618Z,2.00
2019-03-18T05:58:59.890Z,2.20
2019-03-18T06:01:28.846Z,2.30
2019-03-18T06:03:58.724Z,2.60
2019-03-18T06:06:27.069Z,2.80
2019-03-18T06:08:57.159Z,3.00
2019-03-18T06:11:26.567Z,3.00
2019-03-18T06:13:56.693Z,3.10
2019-03-18T06:16:25.402Z,3.20
2019-03-18T06:18:54.815Z,3.20
2019-03-18T06:21:23.679Z,3.30
2019-03-18T06:23:54.418Z,3.60
2019-03-18T06:26:24.522Z,3.50
2019-03-18T06:28:52.805Z,3.60
2019-03-18T06:32:01.166Z,3.70
2019-03-18T06:34:29.585Z,3.80
2019-03-18T06:36:58.092Z,3.80
2019-03-18T06:39:26.684Z,3.90
2019-03-18T06:41:55.322Z,4.00
2019-03-18T06:44:23.899Z,4.00
2019-03-18T06:46:52.846Z,4.10
2019-03-18T06:49:21.287Z,4.20
2019-03-18T06:51:49.531Z,4.20
2019-03-18T06:54:18.100Z,4.20
2019-03-18T06:56:46.660Z,4.20
2019-03-18T06:59:14.880Z,4.10
2019-03-18T07:01:43.102Z,4.20
2019-03-18T07:04:11.420Z,4.20
2019-03-18T07:06:39.599Z,4.30
2019-03-18T07:09:08.397Z,4.40
2019-03-18T07:11:36.467Z,4.40
2019-03-18T07:14:04.609Z,4.40
2019-03-18T07:16:33.073Z,4.50
2019-03-18T07:19:01.311Z,4.60
2019-03-18T07:21:31.221Z,4.60
2019-03-18T07:24:00.164Z,4.80
2019-03-18T07:26:28.273Z,4.90
2019-03-18T07:28:56.729Z,5.00
2019-03-18T07:31:26.112Z,5.10
2019-03-18T07:33:54.649Z,5.20
2019-03-18T07:36:23.709Z,5.10
2019-03-18T07:38:51.868Z,5.20
2019-03-18T07:41:20.143Z,5.10
2019-03-18T07:43:49.644Z,5.20
2019-03-18T07:46:18.264Z,5.20
2019-03-18T07:48:46.387Z,5.20
2019-03-18T07:51:15.039Z,5.20
2019-03-18T07:53:42.970Z,5.20
2019-03-18T07:56:12.086Z,5.20
2019-03-18T07:58:40.380Z,5.30
2019-03-18T08:01:08.944Z,5.40
2019-03-18T08:03:37.214Z,5.30
2019-03-18T08:06:05.962Z,5.40
2019-03-18T08:08:35.421Z,5.40
2019-03-18T08:11:03.472Z,5.40
2019-03-18T08:13:32.304Z,5.40
2019-03-18T08:16:01.334Z,5.30
2019-03-18T08:18:42.470Z,5.30
2019-03-18T08:21:00.343Z,5.30
2019-03-18T08:23:29.095Z,5.30
2019-03-18T08:25:57.820Z,5.30
2019-03-18T08:28:26.611Z,5.20
2019-03-18T08:30:55.558Z,5.40
2019-03-18T08:33:23.948Z,5.60
2019-03-18T08:35:52.125Z,6.20
2019-03-18T08:38:20.708Z,7.50
2019-03-18T08:40:49.752Z,7.90
2019-03-18T08:43:17.694Z,8.70
2019-03-18T08:45:46.169Z,8.50
2019-03-18T08:48:14.455Z,8.20
2019-03-18T08:50:43.227Z,8.10
2019-03-18T08:53:11.294Z,8.50
2019-03-18T08:55:39.472Z,8.60
2019-03-18T08:58:07.842Z,9.20
2019-03-18T09:00:36.544Z,11.10
2019-03-18T09:03:04.468Z,11.60
2019-03-18T09:05:32.728Z,12.00
2019-03-18T09:08:00.840Z,12.30
2019-03-18T09:10:29.523Z,12.20
2019-03-18T09:12:58.244Z,11.50
2019-03-18T09:15:26.709Z,10.40
2019-03-18T09:17:55.029Z,10.50
2019-03-18T09:20:23.661Z,11.00
2019-03-18T09:22:52.068Z,10.30
2019-03-18T09:25:21.152Z,11.80
2019-03-18T09:27:51.391Z,12.10
2019-03-18T09:30:19.511Z,11.40
2019-03-18T09:32:47.568Z,11.00
2019-03-18T09:35:16.383Z,11.10
2019-03-18T09:37:44.739Z,11.40
2019-03-18T09:40:16.176Z,12.70
2019-03-18T09:42:44.440Z,13.00
2019-03-18T09:45:12.947Z,13.80
2019-03-18T09:47:41.739Z,14.50
2019-03-18T09:50:11.595Z,14.40
2019-03-18T09:52:39.623Z,14.40
2019-03-18T09:55:08.495Z,13.20
2019-03-18T09:57:36.425Z,14.20
2019-03-18T10:00:05.116Z,14.40
2019-03-18T10:02:33.149Z,13.10
2019-03-18T10:05:01.804Z,12.50
2019-03-18T10:07:31.613Z,13.50
2019-03-18T10:10:00.334Z,15.00
2019-03-18T10:12:28.708Z,15.70
2019-03-18T10:14:56.853Z,16.40
2019-03-18T10:17:26.053Z,15.70
2019-03-18T10:19:54.717Z,15.60
2019-03-18T10:22:23.129Z,15.30
2019-03-18T10:24:51.609Z,15.50
2019-03-18T10:27:20.513Z,14.80
2019-03-18T10:29:48.530Z,15.70
2019-03-18T10:32:16.532Z,14.40
2019-03-18T10:34:44.982Z,12.40
2019-03-18T10:37:14.141Z,11.00
2019-03-18T10:39:42.410Z,10.30
2019-03-18T10:42:11.339Z,10.70
2019-03-18T10:44:39.482Z,12.40
2019-03-18T10:47:08.463Z,14.10
2019-03-18T10:49:45.964Z,15.30
2019-03-18T10:52:08.431Z,15.80
2019-03-18T10:54:36.645Z,15.70
2019-03-18T10:57:05.233Z,15.70
2019-03-18T10:59:33.300Z,15.80
2019-03-18T11:02:01.344Z,15.70
2019-03-18T11:04:30.759Z,16.10
2019-03-18T11:06:58.731Z,16.10
2019-03-18T11:09:27.056Z,16.00
2019-03-18T11:11:55.247Z,13.60
2019-03-18T11:14:24.575Z,13.00
2019-03-18T11:16:53.090Z,13.30
2019-03-18T11:19:21.269Z,12.70
2019-03-18T11:21:50.537Z,12.40
2019-03-18T11:24:18.599Z,11.60
2019-03-18T11:26:46.731Z,10.50
2019-03-18T11:29:15.971Z,9.70
2019-03-18T11:31:45.940Z,9.70
2019-03-18T11:34:15.396Z,10.40
2019-03-18T11:36:44.619Z,10.80
2019-03-18T11:39:14.030Z,11.00
2019-03-18T11:41:42.926Z,10.60
2019-03-18T11:44:10.864Z,10.70
2019-03-18T11:46:40.566Z,10.70
2019-03-18T11:49:11.055Z,10.70
2019-03-18T11:51:39.404Z,10.70
2019-03-18T11:54:08.025Z,10.40
2019-03-18T11:56:36.568Z,10.00
2019-03-18T11:59:04.585Z,9.60
2019-03-18T12:01:32.654Z,9.60
2019-03-18T12:04:00.752Z,10.00
2019-03-18T12:06:28.789Z,10.60
2019-03-18T12:08:56.964Z,11.00
2019-03-18T12:11:26.553Z,11.20
2019-03-18T12:13:55.326Z,11.20
2019-03-18T12:16:23.585Z,10.90
2019-03-18T12:18:51.629Z,10.40
2019-03-18T12:21:21.275Z,10.40
2019-03-18T12:23:49.790Z,10.30
2019-03-18T12:26:17.982Z,10.00
2019-03-18T12:28:46.291Z,10.20
2019-03-18T12:31:14.627Z,10.20
2019-03-18T12:33:42.954Z,10.50
2019-03-18T12:36:11.807Z,10.40
2019-03-18T12:38:40.498Z,10.20
2019-03-18T12:41:08.542Z,10.20
2019-03-18T12:43:36.565Z,9.90
2019-03-18T12:46:05.071Z,9.90
2019-03-18T12:48:33.179Z,9.80
2019-03-18T12:51:01.668Z,6.20
2019-03-18T12:53:29.881Z,9.90
2019-03-18T12:55:58.370Z,9.90
2019-03-18T12:58:26.869Z,9.60
2019-03-18T13:00:54.947Z,9.50
2019-03-18T13:03:23.927Z,9.40
2019-03-18T13:05:51.976Z,9.40
2019-03-18T13:08:20.980Z,9.40
2019-03-18T13:10:49.867Z,9.40
2019-03-18T13:13:17.818Z,9.60
2019-03-18T13:15:47.021Z,9.70
2019-03-18T13:18:15.791Z,9.60
2019-03-18T13:20:44.400Z,9.60
2019-03-18T13:23:12.734Z,9.50
2019-03-18T13:25:41.870Z,9.50
2019-03-18T13:28:10.476Z,9.30
2019-03-18T13:30:38.984Z,9.40
2019-03-18T13:33:07.682Z,9.60
2019-03-18T13:35:36.301Z,9.90
2019-03-18T13:38:04.847Z,10.00
2019-03-18T13:40:33.247Z,10.10
2019-03-18T13:43:02.544Z,10.00
2019-03-18T13:45:33.220Z,10.00
2019-03-18T13:48:01.640Z,10.00
2019-03-18T13:50:32.087Z,9.90
2019-03-18T13:53:00.770Z,9.90
2019-03-18T13:55:29.458Z,9.80
2019-03-18T13:57:57.511Z,9.70
2019-03-18T14:00:26.110Z,9.70
2019-03-18T14:02:54.892Z,9.60
2019-03-18T14:05:22.942Z,9.40
2019-03-18T14:08:00.116Z,9.30
2019-03-18T14:10:21.461Z,9.20
2019-03-18T14:12:49.730Z,9.00
2019-03-18T14:15:17.891Z,8.90
2019-03-18T14:17:46.811Z,8.80
2019-03-18T14:20:15.419Z,8.70
2019-03-18T14:22:44.226Z,8.20
2019-03-18T14:25:12.631Z,7.80
2019-03-18T14:27:41.120Z,7.40
2019-03-18T14:30:12.904Z,7.10
2019-03-18T14:32:42.238Z,8.00
2019-03-18T14:35:10.434Z,6.30
2019-03-18T14:37:39.132Z,6.00
2019-03-18T14:40:09.552Z,5.70
2019-03-18T14:42:38.031Z,5.60
2019-03-18T14:45:09.242Z,5.70
2019-03-18T14:47:38.214Z,5.90
2019-03-18T14:50:07.155Z,6.20
2019-03-18T14:52:37.072Z,6.40
2019-03-18T14:55:06.150Z,6.60
2019-03-18T14:57:34.541Z,6.60
2019-03-18T15:00:04.381Z,6.60
2019-03-18T15:02:32.784Z,6.80
2019-03-18T15:05:00.702Z,6.80
2019-03-18T15:07:29.128Z,7.00
2019-03-18T15:09:58.255Z,7.30
2019-03-18T15:12:27.659Z,7.40
2019-03-18T15:14:56.895Z,7.30
2019-03-18T15:17:25.941Z,7.20
2019-03-18T15:19:54.698Z,7.00
2019-03-18T15:22:22.762Z,6.90
2019-03-18T15:24:51.161Z,7.00
2019-03-18T15:27:19.943Z,7.00
2019-03-18T15:29:48.511Z,7.00
2019-03-18T15:32:26.611Z,7.10
2019-03-18T15:34:55.114Z,7.10
2019-03-18T15:37:24.061Z,7.30
2019-03-18T15:39:52.571Z,7.50
2019-03-18T15:42:20.628Z,7.60
2019-03-18T15:44:49.558Z,7.70
2019-03-18T15:47:18.055Z,7.70
2019-03-18T15:49:47.372Z,7.70
2019-03-18T15:52:15.734Z,7.60
2019-03-18T15:54:53.880Z,7.60
2019-03-18T15:57:15.854Z,7.60
2019-03-18T15:59:45.036Z,7.60
2019-03-18T16:02:13.593Z,7.80
2019-03-18T16:04:41.911Z,7.90
2019-03-18T16:07:10.173Z,8.10
2019-03-18T16:09:39.278Z,8.00
2019-03-18T16:12:08.676Z,7.80
2019-03-18T16:14:40.684Z,7.60
2019-03-18T16:17:10.179Z,7.50
2019-03-18T16:19:38.591Z,7.50
2019-03-18T16:22:07.455Z,7.40
2019-03-18T16:24:35.547Z,7.30
2019-03-18T16:27:03.845Z,7.30
2019-03-18T16:29:33.165Z,7.30
2019-03-18T16:32:10.783Z,7.30
2019-03-18T16:34:40.986Z,7.30
2019-03-18T16:37:10.868Z,7.20
2019-03-18T16:39:39.328Z,7.20
2019-03-18T16:42:07.640Z,7.10
2019-03-18T16:44:37.475Z,7.10
2019-03-18T16:47:05.410Z,7.10
2019-03-18T16:49:34.418Z,7.10
2019-03-18T16:52:03.065Z,7.10
2019-03-18T16:54:31.237Z,7.10
2019-03-18T16:57:00.384Z,7.00
2019-03-18T16:59:29.264Z,7.00
2019-03-18T17:01:59.058Z,7.10
2019-03-18T17:04:27.444Z,7.00
2019-03-18T17:06:55.555Z,6.70
2019-03-18T17:09:23.552Z,6.20
2019-03-18T17:11:51.826Z,5.00
2019-03-18T17:14:20.184Z,4.90
2019-03-18T17:16:48.386Z,4.80
2019-03-18T17:19:17.381Z,4.70
2019-03-18T17:21:46.177Z,4.60
2019-03-18T17:24:14.260Z,4.50
2019-03-18T17:26:42.381Z,4.40
2019-03-18T17:29:11.029Z,4.30
2019-03-18T17:31:39.204Z,4.30
2019-03-18T17:34:07.517Z,4.10
2019-03-18T17:36:35.924Z,4.10
2019-03-18T17:39:07.703Z,3.80
2019-03-18T17:41:36.151Z,3.80
2019-03-18T17:44:04.536Z,3.50
2019-03-18T17:46:32.707Z,3.30
2019-03-18T17:49:00.843Z,3.30
2019-03-18T17:51:33.239Z,3.30
2019-03-18T17:54:02.766Z,3.30
2019-03-18T17:56:31.012Z,3.30
2019-03-18T17:59:00.602Z,3.20
2019-03-18T18:01:28.951Z,3.10
2019-03-18T18:03:58.506Z,3.00
2019-03-18T18:06:26.943Z,2.90
2019-03-18T18:08:56.120Z,2.70
2019-03-18T18:11:25.320Z,2.70
2019-03-18T18:13:53.867Z,2.60
2019-03-18T18:16:23.603Z,2.50
2019-03-18T18:18:52.848Z,2.30
2019-03-18T18:21:23.643Z,2.30
2019-03-18T18:23:52.126Z,2.30
2019-03-18T18:26:23.634Z,2.20
2019-03-18T18:28:51.870Z,2.10
2019-03-18T18:31:20.148Z,2.20
2019-03-18T18:33:49.068Z,2.20
2019-03-18T18:36:17.217Z,2.10
2019-03-18T18:38:46.394Z,1.90
2019-03-18T18:41:15.375Z,1.90
2019-03-18T18:43:45.193Z,2.00
2019-03-18T18:46:13.441Z,2.00
2019-03-18T18:48:41.828Z,1.80
2019-03-18T18:51:10.211Z,1.80
2019-03-18T18:53:39.228Z,1.70
2019-03-18T18:56:08.103Z,1.70
2019-03-18T18:58:36.148Z,1.60
2019-03-18T19:01:05.419Z,1.70
2019-03-18T19:03:34.540Z,1.90
2019-03-18T19:06:02.443Z,2.00
2019-03-18T19:08:31.061Z,2.10
2019-03-18T19:10:59.335Z,2.10
2019-03-18T19:13:27.684Z,2.20
2019-03-18T19:15:55.640Z,2.20
2019-03-18T19:18:24.258Z,2.30
2019-03-18T19:20:53.813Z,2.50
2019-03-18T19:23:23.011Z,2.60
2019-03-18T19:25:51.619Z,2.80
2019-03-18T19:28:20.496Z,2.90
2019-03-18T19:30:50.287Z,3.00
2019-03-18T19:33:18.740Z,3.10
2019-03-18T19:35:47.772Z,3.00
2019-03-18T19:38:16.793Z,3.00
2019-03-18T19:40:45.106Z,2.90
2019-03-18T19:43:13.600Z,2.90
2019-03-18T19:45:41.748Z,2.80
2019-03-18T19:48:10.231Z,2.80
2019-03-18T19:50:38.644Z,2.80
2019-03-18T19:53:09.885Z,2.80
2019-03-18T19:55:38.973Z,2.80
2019-03-18T19:58:07.851Z,2.80
2019-03-18T20:00:36.128Z,2.80
2019-03-18T20:03:04.298Z,2.80
2019-03-18T20:05:39.274Z,2.80
2019-03-18T20:08:07.950Z,2.90
2019-03-18T20:10:36.299Z,2.90
2019-03-18T20:13:06.772Z,2.90
2019-03-18T20:15:36.954Z,2.80
2019-03-18T20:18:05.668Z,2.70
2019-03-18T20:20:34.078Z,2.60
2019-03-18T20:23:02.815Z,2.60
2019-03-18T20:25:30.897Z,2.60
2019-03-18T20:27:59.485Z,2.50
2019-03-18T20:30:27.632Z,2.40
2019-03-18T20:32:55.699Z,2.20
2019-03-18T20:35:24.592Z,2.00
2019-03-18T20:37:52.732Z,1.90
2019-03-18T20:40:20.781Z,1.80
2019-03-18T20:42:48.983Z,1.70
2019-03-18T20:45:17.226Z,1.70
2019-03-18T20:47:45.667Z,1.60
2019-03-18T20:50:15.124Z,1.60
2019-03-18T20:52:44.325Z,1.70
2019-03-18T20:55:12.565Z,1.60
2019-03-18T20:57:42.222Z,1.50
2019-03-18T21:00:12.950Z,1.50
2019-03-18T21:02:41.455Z,1.40
2019-03-18T21:05:10.562Z,1.30
2019-03-18T21:07:39.122Z,1.20
2019-03-18T21:10:10.170Z,1.30
2019-03-18T21:12:41.228Z,1.40
2019-03-18T21:15:11.134Z,1.40
2019-03-18T21:17:39.565Z,1.50
2019-03-18T21:20:11.332Z,1.60
2019-03-18T21:22:41.305Z,1.60
2019-03-18T21:25:09.751Z,1.50
2019-03-18T21:27:38.431Z,1.40
2019-03-18T21:30:08.439Z,1.30
2019-03-18T21:32:37.546Z,1.20
2019-03-18T21:35:07.032Z,1.00
2019-03-18T21:37:36.224Z,1.00
2019-03-18T21:40:06.105Z,0.90
2019-03-18T21:42:34.687Z,0.90
2019-03-18T21:45:03.094Z,0.80
2019-03-18T21:47:31.123Z,0.80
2019-03-18T21:50:01.328Z,1.00
2019-03-18T21:52:30.892Z,1.10
2019-03-18T21:55:00.492Z,1.30
2019-03-18T21:57:29.180Z,1.80
2019-03-18T21:59:58.827Z,1.20
2019-03-18T22:02:28.103Z,1.20
2019-03-18T22:04:57.787Z,1.10
2019-03-18T22:07:27.394Z,1.10
2019-03-18T22:09:58.028Z,1.00
2019-03-18T22:12:28.528Z,0.90
2019-03-18T22:15:01.254Z,1.00
2019-03-18T22:17:30.367Z,0.90
2019-03-18T22:19:59.411Z,0.90
2019-03-18T22:22:28.497Z,0.90
2019-03-18T22:24:57.075Z,0.90
2019-03-18T22:27:27.505Z,1.20
2019-03-18T22:29:57.110Z,1.20
2019-03-18T22:32:26.511Z,1.20
2019-03-18T22:34:55.051Z,1.10
2019-03-18T22:37:24.536Z,1.20
2019-03-18T22:39:52.817Z,1.20
2019-03-18T22:42:23.115Z,1.10
2019-03-18T22:44:53.505Z,1.00
2019-03-18T22:47:24.034Z,1.00
2019-03-18T22:49:55.082Z,1.00
2019-03-18T22:52:25.886Z,0.90
2019-03-18T22:55:00.330Z,1.00
2019-03-18T22:57:29.609Z,1.00
2019-03-18T22:59:58.748Z,1.00
2019-03-18T23:02:29.396Z,1.00
2019-03-18T23:05:00.033Z,0.90
2019-03-18T23:07:55.600Z,1.00
2019-03-18T23:11:11.016Z,1.00
2019-03-18T23:13:41.030Z,1.10
2019-03-18T23:16:10.398Z,1.10
2019-03-18T23:18:40.320Z,1.20
2019-03-18T23:21:09.482Z,1.30
2019-03-18T23:23:38.290Z,1.40
2019-03-18T23:26:07.127Z,1.30
2019-03-18T23:28:35.640Z,1.30
2019-03-18T23:31:04.540Z,1.20
2019-03-18T23:33:33.511Z,1.20
2019-03-18T23:36:01.684Z,1.10
2019-03-18T23:38:31.512Z,1.00
2019-03-18T23:41:01.285Z,0.80
2019-03-18T23:43:30.326Z,0.80
2019-03-18T23:45:59.087Z,0.90
2019-03-18T23:48:28.302Z,0.90
2019-03-18T23:50:56.850Z,0.90
2019-03-18T23:53:26.091Z,0.80
2019-03-18T23:55:56.265Z,0.70
2019-03-18T23:58:25.523Z,0.70
